EKVJ/STA METAR and TAF weather

Enter ICAO airport designator
Station Type Date Time Source
EKVJ METAR 2018/12/10 14:20 UTC NOAA

EKVJ 101420Z 32015G25KT 9999 SCT028 06/01 Q1006


Station Type Date Time Source
EKVJ Decoded METAR 2018/12/10 14:20 UTC NOAA

Stauning Lufthavn, Denmark (EKVJ) 56-00N 008-21E 5M
Dec 10, 2018 - 09:20 AM EST / 2018.12.10 1420 UTC
Wind: from the NW (320 degrees) at 17 MPH (15 KT) gusting to 29 MPH (25 KT):0
Visibility: greater than 7 mile(s):0
Sky conditions: partly cloudy
Temperature: 42 F (6 C)
Dew Point: 33 F (1 C)
Relative Humidity: 70%
Pressure (altimeter): 29.71 in. Hg (1006 hPa)
ob: EKVJ 101420Z 32015G25KT 9999 SCT028 06/01 Q1006
cycle: 14

Station Type Date Time Source
EKVJ TAF UTC NOAA

Error!


Example: see airport list